sensor_id;sensor_type;location;lat;lon;timestamp;temperature;humidity
42019;DHT22;27703;51.980;5.848;2023-05-08T00:01:57;16.60;99.90
42019;DHT22;27703;51.980;5.848;2023-05-08T00:04:22;16.60;99.90
42019;DHT22;27703;51.980;5.848;2023-05-08T00:06:48;16.50;99.90
42019;DHT22;27703;51.980;5.848;2023-05-08T00:09:15;16.50;99.90
42019;DHT22;27703;51.980;5.848;2023-05-08T00:11:41;16.50;99.90
42019;DHT22;27703;51.980;5.848;2023-05-08T00:14:06;16.50;99.90
42019;DHT22;27703;51.980;5.848;2023-05-08T00:16:32;16.40;99.90
42019;DHT22;27703;51.980;5.848;2023-05-08T00:18:58;16.40;99.90
42019;DHT22;27703;51.980;5.848;2023-05-08T00:21:24;16.40;99.90
42019;DHT22;27703;51.980;5.848;2023-05-08T00:23:50;16.40;99.90
42019;DHT22;27703;51.980;5.848;2023-05-08T00:26:16;16.40;99.90
42019;DHT22;27703;51.980;5.848;2023-05-08T00:28:41;16.40;99.90
42019;DHT22;27703;51.980;5.848;2023-05-08T00:31:07;16.30;99.90
42019;DHT22;27703;51.980;5.848;2023-05-08T00:33:32;16.30;99.90
42019;DHT22;27703;51.980;5.848;2023-05-08T00:36:02;16.30;99.90
42019;DHT22;27703;51.980;5.848;2023-05-08T00:38:35;16.30;99.90
42019;DHT22;27703;51.980;5.848;2023-05-08T00:41:01;16.30;99.90
42019;DHT22;27703;51.980;5.848;2023-05-08T00:43:27;16.20;99.90
42019;DHT22;27703;51.980;5.848;2023-05-08T00:45:54;16.20;99.90
42019;DHT22;27703;51.980;5.848;2023-05-08T00:48:21;16.20;99.90
42019;DHT22;27703;51.980;5.848;2023-05-08T00:50:51;16.10;99.90
42019;DHT22;27703;51.980;5.848;2023-05-08T00:53:18;16.10;99.90
42019;DHT22;27703;51.980;5.848;2023-05-08T00:55:45;16.10;99.90
42019;DHT22;27703;51.980;5.848;2023-05-08T00:58:12;16.10;99.90
42019;DHT22;27703;51.980;5.848;2023-05-08T01:00:40;16.10;99.90
42019;DHT22;27703;51.980;5.848;2023-05-08T01:03:07;16.00;99.90
42019;DHT22;27703;51.980;5.848;2023-05-08T01:05:34;16.00;99.90
42019;DHT22;27703;51.980;5.848;2023-05-08T01:08:00;16.00;99.90
42019;DHT22;27703;51.980;5.848;2023-05-08T01:10:33;15.90;99.90
42019;DHT22;27703;51.980;5.848;2023-05-08T01:13:25;15.90;99.90
42019;DHT22;27703;51.980;5.848;2023-05-08T01:16:10;15.90;99.90
42019;DHT22;27703;51.980;5.848;2023-05-08T01:18:49;15.90;99.90
42019;DHT22;27703;51.980;5.848;2023-05-08T01:24:39;15.80;99.90
42019;DHT22;27703;51.980;5.848;2023-05-08T01:32:28;15.80;99.90
42019;DHT22;27703;51.980;5.848;2023-05-08T01:40:12;15.70;99.90
42019;DHT22;27703;51.980;5.848;2023-05-08T01:43:07;15.70;99.90
42019;DHT22;27703;51.980;5.848;2023-05-08T01:45:38;15.70;99.90
42019;DHT22;27703;51.980;5.848;2023-05-08T01:48:09;15.70;99.90
42019;DHT22;27703;51.980;5.848;2023-05-08T01:50:41;15.60;99.90
42019;DHT22;27703;51.980;5.848;2023-05-08T01:53:19;15.60;99.90
42019;DHT22;27703;51.980;5.848;2023-05-08T01:55:49;15.60;99.90
42019;DHT22;27703;51.980;5.848;2023-05-08T01:58:15;15.60;99.90
42019;DHT22;27703;51.980;5.848;2023-05-08T02:00:42;15.50;99.90
42019;DHT22;27703;51.980;5.848;2023-05-08T02:03:11;15.40;99.90
42019;DHT22;27703;51.980;5.848;2023-05-08T02:05:38;15.50;99.90
42019;DHT22;27703;51.980;5.848;2023-05-08T02:08:07;15.50;99.90
42019;DHT22;27703;51.980;5.848;2023-05-08T02:10:35;15.50;99.90
42019;DHT22;27703;51.980;5.848;2023-05-08T02:13:03;15.40;99.90
42019;DHT22;27703;51.980;5.848;2023-05-08T02:15:30;15.40;99.90
42019;DHT22;27703;51.980;5.848;2023-05-08T02:17:56;15.40;99.90
42019;DHT22;27703;51.980;5.848;2023-05-08T02:20:24;15.40;99.90
42019;DHT22;27703;51.980;5.848;2023-05-08T02:22:50;15.40;99.90
42019;DHT22;27703;51.980;5.848;2023-05-08T02:25:17;15.30;99.90
42019;DHT22;27703;51.980;5.848;2023-05-08T02:27:46;15.30;99.90
42019;DHT22;27703;51.980;5.848;2023-05-08T02:30:13;15.30;99.90
42019;DHT22;27703;51.980;5.848;2023-05-08T02:32:44;15.30;99.90
42019;DHT22;27703;51.980;5.848;2023-05-08T02:35:15;15.30;99.90
42019;DHT22;27703;51.980;5.848;2023-05-08T02:37:44;15.20;99.90
42019;DHT22;27703;51.980;5.848;2023-05-08T02:40:11;15.20;99.90
42019;DHT22;27703;51.980;5.848;2023-05-08T02:42:38;15.20;99.90
42019;DHT22;27703;51.980;5.848;2023-05-08T02:45:04;15.20;99.90
42019;DHT22;27703;51.980;5.848;2023-05-08T02:50:42;15.10;99.90
42019;DHT22;27703;51.980;5.848;2023-05-08T02:53:14;15.10;99.90
42019;DHT22;27703;51.980;5.848;2023-05-08T02:55:53;15.10;99.90
42019;DHT22;27703;51.980;5.848;2023-05-08T02:58:56;15.10;99.90
42019;DHT22;27703;51.980;5.848;2023-05-08T03:01:28;15.00;99.90
42019;DHT22;27703;51.980;5.848;2023-05-08T03:04:04;15.00;99.90
42019;DHT22;27703;51.980;5.848;2023-05-08T03:06:39;15.00;99.90
42019;DHT22;27703;51.980;5.848;2023-05-08T03:09:06;15.00;99.90
42019;DHT22;27703;51.980;5.848;2023-05-08T03:11:39;15.00;99.90
42019;DHT22;27703;51.980;5.848;2023-05-08T03:14:09;14.90;99.90
42019;DHT22;27703;51.980;5.848;2023-05-08T03:16:35;14.90;99.90
42019;DHT22;27703;51.980;5.848;2023-05-08T03:19:10;14.90;99.90
42019;DHT22;27703;51.980;5.848;2023-05-08T03:21:39;14.90;99.90
42019;DHT22;27703;51.980;5.848;2023-05-08T03:24:06;14.90;99.90
42019;DHT22;27703;51.980;5.848;2023-05-08T03:26:33;14.90;99.90
42019;DHT22;27703;51.980;5.848;2023-05-08T03:28:59;14.90;99.90
42019;DHT22;27703;51.980;5.848;2023-05-08T03:31:25;14.80;99.90
42019;DHT22;27703;51.980;5.848;2023-05-08T03:33:53;14.80;99.90
42019;DHT22;27703;51.980;5.848;2023-05-08T03:36:19;14.80;99.90
42019;DHT22;27703;51.980;5.848;2023-05-08T03:38:45;14.80;99.90
42019;DHT22;27703;51.980;5.848;2023-05-08T03:41:11;14.80;99.90
42019;DHT22;27703;51.980;5.848;2023-05-08T03:43:37;14.80;99.90
42019;DHT22;27703;51.980;5.848;2023-05-08T03:46:04;14.80;99.90
42019;DHT22;27703;51.980;5.848;2023-05-08T03:48:32;14.80;99.90
42019;DHT22;27703;51.980;5.848;2023-05-08T03:51:01;14.80;99.90
42019;DHT22;27703;51.980;5.848;2023-05-08T03:53:28;14.80;99.90
42019;DHT22;27703;51.980;5.848;2023-05-08T03:55:56;14.80;99.90
42019;DHT22;27703;51.980;5.848;2023-05-08T03:58:24;14.80;99.90
42019;DHT22;27703;51.980;5.848;2023-05-08T04:01:22;14.80;99.90
42019;DHT22;27703;51.980;5.848;2023-05-08T04:04:05;14.80;99.90
42019;DHT22;27703;51.980;5.848;2023-05-08T04:06:52;14.80;99.90
42019;DHT22;27703;51.980;5.848;2023-05-08T04:09:30;14.70;99.90
42019;DHT22;27703;51.980;5.848;2023-05-08T04:12:19;14.80;99.90
42019;DHT22;27703;51.980;5.848;2023-05-08T04:14:55;14.80;99.90
42019;DHT22;27703;51.980;5.848;2023-05-08T04:17:58;14.70;99.90
42019;DHT22;27703;51.980;5.848;2023-05-08T04:20:26;14.70;99.90
42019;DHT22;27703;51.980;5.848;2023-05-08T04:22:53;14.70;99.90
42019;DHT22;27703;51.980;5.848;2023-05-08T04:25:19;14.60;99.90
42019;DHT22;27703;51.980;5.848;2023-05-08T04:27:48;14.60;99.90
42019;DHT22;27703;51.980;5.848;2023-05-08T04:30:15;14.60;99.90
42019;DHT22;27703;51.980;5.848;2023-05-08T04:32:42;14.60;99.90
42019;DHT22;27703;51.980;5.848;2023-05-08T04:35:07;14.60;99.90
42019;DHT22;27703;51.980;5.848;2023-05-08T04:37:33;14.60;99.90
42019;DHT22;27703;51.980;5.848;2023-05-08T04:39:59;14.60;99.90
42019;DHT22;27703;51.980;5.848;2023-05-08T04:42:25;14.60;99.90
42019;DHT22;27703;51.980;5.848;2023-05-08T04:44:52;14.60;99.90
42019;DHT22;27703;51.980;5.848;2023-05-08T04:47:18;14.60;99.90
42019;DHT22;27703;51.980;5.848;2023-05-08T04:49:43;14.60;99.90
42019;DHT22;27703;51.980;5.848;2023-05-08T04:52:09;14.60;99.90
42019;DHT22;27703;51.980;5.848;2023-05-08T04:54:34;14.60;99.90
42019;DHT22;27703;51.980;5.848;2023-05-08T04:57:00;14.60;99.90
42019;DHT22;27703;51.980;5.848;2023-05-08T04:59:26;14.60;99.90
42019;DHT22;27703;51.980;5.848;2023-05-08T05:01:53;14.60;99.90
42019;DHT22;27703;51.980;5.848;2023-05-08T05:04:20;14.60;99.90
42019;DHT22;27703;51.980;5.848;2023-05-08T05:06:46;14.60;99.90
42019;DHT22;27703;51.980;5.848;2023-05-08T05:09:12;14.60;99.90
42019;DHT22;27703;51.980;5.848;2023-05-08T05:11:37;14.60;99.90
42019;DHT22;27703;51.980;5.848;2023-05-08T05:14:03;14.60;99.90
42019;DHT22;27703;51.980;5.848;2023-05-08T05:16:28;14.70;99.90
42019;DHT22;27703;51.980;5.848;2023-05-08T05:18:54;14.60;99.90
42019;DHT22;27703;51.980;5.848;2023-05-08T05:21:20;14.70;99.90
42019;DHT22;27703;51.980;5.848;2023-05-08T05:23:45;14.70;99.90
42019;DHT22;27703;51.980;5.848;2023-05-08T05:26:11;14.70;99.90
42019;DHT22;27703;51.980;5.848;2023-05-08T05:28:36;14.70;99.90
42019;DHT22;27703;51.980;5.848;2023-05-08T05:31:02;14.70;99.90
42019;DHT22;27703;51.980;5.848;2023-05-08T05:33:28;14.80;99.90
42019;DHT22;27703;51.980;5.848;2023-05-08T05:35:54;14.80;99.90
42019;DHT22;27703;51.980;5.848;2023-05-08T05:38:19;14.80;99.90
42019;DHT22;27703;51.980;5.848;2023-05-08T05:40:45;14.80;99.90
42019;DHT22;27703;51.980;5.848;2023-05-08T05:43:10;14.80;99.90
42019;DHT22;27703;51.980;5.848;2023-05-08T05:45:36;14.80;99.90
42019;DHT22;27703;51.980;5.848;2023-05-08T05:48:02;14.80;99.90
42019;DHT22;27703;51.980;5.848;2023-05-08T05:50:27;14.80;99.90
42019;DHT22;27703;51.980;5.848;2023-05-08T05:52:53;14.90;99.90
42019;DHT22;27703;51.980;5.848;2023-05-08T05:55:19;15.00;99.90
42019;DHT22;27703;51.980;5.848;2023-05-08T05:57:45;15.00;99.90
42019;DHT22;27703;51.980;5.848;2023-05-08T06:00:11;15.00;99.90
42019;DHT22;27703;51.980;5.848;2023-05-08T06:02:37;15.10;99.90
42019;DHT22;27703;51.980;5.848;2023-05-08T06:05:04;15.10;99.90
42019;DHT22;27703;51.980;5.848;2023-05-08T06:07:30;15.20;99.90
42019;DHT22;27703;51.980;5.848;2023-05-08T06:09:56;15.20;99.90
42019;DHT22;27703;51.980;5.848;2023-05-08T06:12:21;15.20;99.90
42019;DHT22;27703;51.980;5.848;2023-05-08T06:14:47;15.30;99.90
42019;DHT22;27703;51.980;5.848;2023-05-08T06:17:12;15.30;99.90
42019;DHT22;27703;51.980;5.848;2023-05-08T06:19:38;15.30;99.90
42019;DHT22;27703;51.980;5.848;2023-05-08T06:22:04;15.30;99.90
42019;DHT22;27703;51.980;5.848;2023-05-08T06:24:29;15.40;99.90
42019;DHT22;27703;51.980;5.848;2023-05-08T06:26:55;15.40;99.90
42019;DHT22;27703;51.980;5.848;2023-05-08T06:29:21;15.40;99.90
42019;DHT22;27703;51.980;5.848;2023-05-08T06:31:47;15.40;99.90
42019;DHT22;27703;51.980;5.848;2023-05-08T06:34:12;15.50;99.90
42019;DHT22;27703;51.980;5.848;2023-05-08T06:36:38;15.50;99.90
42019;DHT22;27703;51.980;5.848;2023-05-08T06:39:04;15.50;99.90
42019;DHT22;27703;51.980;5.848;2023-05-08T06:41:33;15.60;99.90
42019;DHT22;27703;51.980;5.848;2023-05-08T06:43:58;15.60;99.90
42019;DHT22;27703;51.980;5.848;2023-05-08T06:46:24;15.70;99.90
42019;DHT22;27703;51.980;5.848;2023-05-08T06:48:50;15.70;99.90
42019;DHT22;27703;51.980;5.848;2023-05-08T06:51:15;15.80;99.90
42019;DHT22;27703;51.980;5.848;2023-05-08T06:53:41;15.80;99.90
42019;DHT22;27703;51.980;5.848;2023-05-08T06:56:07;15.90;99.90
42019;DHT22;27703;51.980;5.848;2023-05-08T06:58:32;15.90;99.90
42019;DHT22;27703;51.980;5.848;2023-05-08T07:00:58;16.00;99.90
42019;DHT22;27703;51.980;5.848;2023-05-08T07:03:26;16.00;99.90
42019;DHT22;27703;51.980;5.848;2023-05-08T07:05:52;16.10;99.90
42019;DHT22;27703;51.980;5.848;2023-05-08T07:08:17;16.20;99.90
42019;DHT22;27703;51.980;5.848;2023-05-08T07:10:43;16.30;99.90
42019;DHT22;27703;51.980;5.848;2023-05-08T07:13:08;16.40;99.90
42019;DHT22;27703;51.980;5.848;2023-05-08T07:15:34;16.60;99.90
42019;DHT22;27703;51.980;5.848;2023-05-08T07:17:59;16.70;99.90
42019;DHT22;27703;51.980;5.848;2023-05-08T07:20:26;16.90;99.90
42019;DHT22;27703;51.980;5.848;2023-05-08T07:22:51;17.00;99.90
42019;DHT22;27703;51.980;5.848;2023-05-08T07:25:17;17.10;99.90
42019;DHT22;27703;51.980;5.848;2023-05-08T07:27:42;17.20;99.90
42019;DHT22;27703;51.980;5.848;2023-05-08T07:30:08;17.20;99.90
42019;DHT22;27703;51.980;5.848;2023-05-08T07:32:34;17.20;99.90
42019;DHT22;27703;51.980;5.848;2023-05-08T07:35:01;17.20;99.90
42019;DHT22;27703;51.980;5.848;2023-05-08T07:37:27;17.30;99.90
42019;DHT22;27703;51.980;5.848;2023-05-08T07:39:53;17.30;99.90
42019;DHT22;27703;51.980;5.848;2023-05-08T07:42:19;17.30;99.90
42019;DHT22;27703;51.980;5.848;2023-05-08T07:44:45;17.30;99.90
42019;DHT22;27703;51.980;5.848;2023-05-08T07:47:11;17.30;99.90
42019;DHT22;27703;51.980;5.848;2023-05-08T07:49:36;17.30;99.90
42019;DHT22;27703;51.980;5.848;2023-05-08T07:52:02;17.30;99.90
42019;DHT22;27703;51.980;5.848;2023-05-08T07:54:28;17.40;99.90
42019;DHT22;27703;51.980;5.848;2023-05-08T07:56:53;17.40;99.90
42019;DHT22;27703;51.980;5.848;2023-05-08T07:59:19;17.40;99.90
42019;DHT22;27703;51.980;5.848;2023-05-08T08:01:44;17.40;99.90
42019;DHT22;27703;51.980;5.848;2023-05-08T08:04:12;17.40;99.90
42019;DHT22;27703;51.980;5.848;2023-05-08T08:06:41;17.40;99.90
42019;DHT22;27703;51.980;5.848;2023-05-08T08:09:06;17.40;99.90
42019;DHT22;27703;51.980;5.848;2023-05-08T08:11:32;17.30;99.90
42019;DHT22;27703;51.980;5.848;2023-05-08T08:13:57;17.30;99.90
42019;DHT22;27703;51.980;5.848;2023-05-08T08:16:23;17.30;99.90
42019;DHT22;27703;51.980;5.848;2023-05-08T08:18:49;17.30;99.90
42019;DHT22;27703;51.980;5.848;2023-05-08T08:21:17;17.40;99.90
42019;DHT22;27703;51.980;5.848;2023-05-08T08:23:42;17.50;99.90
42019;DHT22;27703;51.980;5.848;2023-05-08T08:26:08;17.50;99.90
42019;DHT22;27703;51.980;5.848;2023-05-08T08:28:33;17.50;99.90
42019;DHT22;27703;51.980;5.848;2023-05-08T08:30:59;17.60;99.90
42019;DHT22;27703;51.980;5.848;2023-05-08T08:33:28;17.60;99.90
42019;DHT22;27703;51.980;5.848;2023-05-08T08:35:54;17.60;99.90
42019;DHT22;27703;51.980;5.848;2023-05-08T08:38:19;17.70;99.90
42019;DHT22;27703;51.980;5.848;2023-05-08T08:40:45;17.80;99.90
42019;DHT22;27703;51.980;5.848;2023-05-08T08:43:11;18.00;99.90
42019;DHT22;27703;51.980;5.848;2023-05-08T08:45:37;18.10;99.90
42019;DHT22;27703;51.980;5.848;2023-05-08T08:48:03;18.10;99.90
42019;DHT22;27703;51.980;5.848;2023-05-08T08:50:32;18.20;99.90
42019;DHT22;27703;51.980;5.848;2023-05-08T08:53:06;18.30;99.90
42019;DHT22;27703;51.980;5.848;2023-05-08T08:55:37;18.40;99.90
42019;DHT22;27703;51.980;5.848;2023-05-08T08:58:30;18.60;99.90
42019;DHT22;27703;51.980;5.848;2023-05-08T09:00:59;18.90;99.90
42019;DHT22;27703;51.980;5.848;2023-05-08T09:03:25;19.10;99.90
42019;DHT22;27703;51.980;5.848;2023-05-08T09:05:52;19.30;99.90
42019;DHT22;27703;51.980;5.848;2023-05-08T09:08:18;19.40;99.90
42019;DHT22;27703;51.980;5.848;2023-05-08T09:10:45;19.50;99.90
42019;DHT22;27703;51.980;5.848;2023-05-08T09:13:10;19.60;99.90
42019;DHT22;27703;51.980;5.848;2023-05-08T09:15:36;19.70;99.90
42019;DHT22;27703;51.980;5.848;2023-05-08T09:18:02;19.80;99.90
42019;DHT22;27703;51.980;5.848;2023-05-08T09:20:28;19.90;99.90
42019;DHT22;27703;51.980;5.848;2023-05-08T09:22:54;20.00;99.90
42019;DHT22;27703;51.980;5.848;2023-05-08T09:25:20;20.20;99.90
42019;DHT22;27703;51.980;5.848;2023-05-08T09:27:45;20.20;99.90
42019;DHT22;27703;51.980;5.848;2023-05-08T09:30:12;20.30;99.90
42019;DHT22;27703;51.980;5.848;2023-05-08T09:32:42;20.40;99.90
42019;DHT22;27703;51.980;5.848;2023-05-08T09:35:10;20.40;99.90
42019;DHT22;27703;51.980;5.848;2023-05-08T09:37:40;20.30;99.90
42019;DHT22;27703;51.980;5.848;2023-05-08T09:40:19;20.20;99.90
42019;DHT22;27703;51.980;5.848;2023-05-08T09:42:47;20.30;99.90
42019;DHT22;27703;51.980;5.848;2023-05-08T09:45:33;20.40;99.90
42019;DHT22;27703;51.980;5.848;2023-05-08T09:47:59;20.60;99.90
42019;DHT22;27703;51.980;5.848;2023-05-08T09:50:25;20.70;99.90
42019;DHT22;27703;51.980;5.848;2023-05-08T09:52:52;20.80;99.90
42019;DHT22;27703;51.980;5.848;2023-05-08T09:55:17;20.70;99.90
42019;DHT22;27703;51.980;5.848;2023-05-08T09:57:56;20.60;99.90
42019;DHT22;27703;51.980;5.848;2023-05-08T10:00:23;20.60;99.90
42019;DHT22;27703;51.980;5.848;2023-05-08T10:02:57;20.50;99.90
42019;DHT22;27703;51.980;5.848;2023-05-08T10:05:30;20.40;99.90
42019;DHT22;27703;51.980;5.848;2023-05-08T10:07:57;20.40;99.90
42019;DHT22;27703;51.980;5.848;2023-05-08T10:12:53;20.30;99.90
42019;DHT22;27703;51.980;5.848;2023-05-08T10:15:24;20.30;99.90
42019;DHT22;27703;51.980;5.848;2023-05-08T10:18:04;20.20;99.90
42019;DHT22;27703;51.980;5.848;2023-05-08T10:20:35;20.30;99.90
42019;DHT22;27703;51.980;5.848;2023-05-08T10:23:02;20.20;99.90
42019;DHT22;27703;51.980;5.848;2023-05-08T10:25:33;20.20;99.90
42019;DHT22;27703;51.980;5.848;2023-05-08T10:28:11;20.10;99.90
42019;DHT22;27703;51.980;5.848;2023-05-08T10:30:46;20.00;99.90
42019;DHT22;27703;51.980;5.848;2023-05-08T10:33:14;19.90;99.90
42019;DHT22;27703;51.980;5.848;2023-05-08T10:35:40;19.90;99.90
42019;DHT22;27703;51.980;5.848;2023-05-08T10:38:08;19.80;99.90
42019;DHT22;27703;51.980;5.848;2023-05-08T10:40:34;19.70;99.90
42019;DHT22;27703;51.980;5.848;2023-05-08T10:43:01;19.60;99.90
42019;DHT22;27703;51.980;5.848;2023-05-08T10:45:27;19.50;99.90
42019;DHT22;27703;51.980;5.848;2023-05-08T10:48:12;19.40;99.90
42019;DHT22;27703;51.980;5.848;2023-05-08T10:53:28;19.20;99.90
42019;DHT22;27703;51.980;5.848;2023-05-08T10:55:55;19.10;99.90
42019;DHT22;27703;51.980;5.848;2023-05-08T10:58:36;19.10;99.90
42019;DHT22;27703;51.980;5.848;2023-05-08T11:03:39;19.00;99.90
42019;DHT22;27703;51.980;5.848;2023-05-08T11:06:08;18.90;99.90
42019;DHT22;27703;51.980;5.848;2023-05-08T11:08:51;18.90;99.90
42019;DHT22;27703;51.980;5.848;2023-05-08T11:11:31;18.90;99.90
42019;DHT22;27703;51.980;5.848;2023-05-08T11:14:13;18.90;99.90
42019;DHT22;27703;51.980;5.848;2023-05-08T11:19:27;19.00;99.90
42019;DHT22;27703;51.980;5.848;2023-05-08T11:22:13;19.10;99.90
42019;DHT22;27703;51.980;5.848;2023-05-08T11:24:45;19.10;99.90
42019;DHT22;27703;51.980;5.848;2023-05-08T11:27:11;19.10;99.90
42019;DHT22;27703;51.980;5.848;2023-05-08T11:29:37;19.20;99.90
42019;DHT22;27703;51.980;5.848;2023-05-08T11:32:03;19.20;99.90
42019;DHT22;27703;51.980;5.848;2023-05-08T11:37:10;19.40;99.90
42019;DHT22;27703;51.980;5.848;2023-05-08T11:39:36;19.50;99.90
42019;DHT22;27703;51.980;5.848;2023-05-08T11:47:24;19.90;99.90
42019;DHT22;27703;51.980;5.848;2023-05-08T11:49:56;19.90;99.90
42019;DHT22;27703;51.980;5.848;2023-05-08T11:52:21;20.00;99.90
42019;DHT22;27703;51.980;5.848;2023-05-08T11:54:47;20.10;99.90
42019;DHT22;27703;51.980;5.848;2023-05-08T11:57:16;20.30;99.90
42019;DHT22;27703;51.980;5.848;2023-05-08T11:59:41;20.50;99.90
42019;DHT22;27703;51.980;5.848;2023-05-08T12:02:08;20.50;99.90
42019;DHT22;27703;51.980;5.848;2023-05-08T12:04:45;20.80;99.90
42019;DHT22;27703;51.980;5.848;2023-05-08T12:07:11;21.10;99.90
42019;DHT22;27703;51.980;5.848;2023-05-08T12:09:36;21.30;99.90
42019;DHT22;27703;51.980;5.848;2023-05-08T12:12:02;21.40;99.90
42019;DHT22;27703;51.980;5.848;2023-05-08T12:14:28;21.40;99.90
42019;DHT22;27703;51.980;5.848;2023-05-08T12:16:54;21.30;99.90
42019;DHT22;27703;51.980;5.848;2023-05-08T12:19:19;21.40;99.90
42019;DHT22;27703;51.980;5.848;2023-05-08T12:21:46;21.50;99.90
42019;DHT22;27703;51.980;5.848;2023-05-08T12:24:13;21.50;99.90
42019;DHT22;27703;51.980;5.848;2023-05-08T12:26:40;21.40;99.90
42019;DHT22;27703;51.980;5.848;2023-05-08T12:29:07;21.30;99.90
42019;DHT22;27703;51.980;5.848;2023-05-08T12:31:34;21.20;99.90
42019;DHT22;27703;51.980;5.848;2023-05-08T12:34:04;21.20;99.90
42019;DHT22;27703;51.980;5.848;2023-05-08T12:36:36;21.20;99.90
42019;DHT22;27703;51.980;5.848;2023-05-08T12:39:12;21.20;99.90
42019;DHT22;27703;51.980;5.848;2023-05-08T12:41:56;21.20;99.90
42019;DHT22;27703;51.980;5.848;2023-05-08T12:44:23;21.20;99.90
42019;DHT22;27703;51.980;5.848;2023-05-08T12:46:50;21.10;99.90
42019;DHT22;27703;51.980;5.848;2023-05-08T12:49:27;21.10;99.90
42019;DHT22;27703;51.980;5.848;2023-05-08T12:52:04;21.10;99.90
42019;DHT22;27703;51.980;5.848;2023-05-08T12:56:59;21.20;99.90
42019;DHT22;27703;51.980;5.848;2023-05-08T12:59:31;21.20;99.90
42019;DHT22;27703;51.980;5.848;2023-05-08T13:01:57;21.30;99.90
42019;DHT22;27703;51.980;5.848;2023-05-08T13:04:23;21.40;99.90
42019;DHT22;27703;51.980;5.848;2023-05-08T13:06:55;21.50;99.90
42019;DHT22;27703;51.980;5.848;2023-05-08T13:09:21;21.70;99.90
42019;DHT22;27703;51.980;5.848;2023-05-08T13:11:48;21.70;99.90
42019;DHT22;27703;51.980;5.848;2023-05-08T13:14:14;21.70;99.90
42019;DHT22;27703;51.980;5.848;2023-05-08T13:16:43;21.70;99.90
42019;DHT22;27703;51.980;5.848;2023-05-08T13:19:09;21.70;99.90
42019;DHT22;27703;51.980;5.848;2023-05-08T13:21:34;21.60;99.90
42019;DHT22;27703;51.980;5.848;2023-05-08T13:24:00;21.50;99.90
42019;DHT22;27703;51.980;5.848;2023-05-08T13:26:26;21.40;99.90
42019;DHT22;27703;51.980;5.848;2023-05-08T13:28:51;21.40;99.90
42019;DHT22;27703;51.980;5.848;2023-05-08T13:31:17;21.30;99.90
42019;DHT22;27703;51.980;5.848;2023-05-08T13:33:42;21.30;99.90
42019;DHT22;27703;51.980;5.848;2023-05-08T13:36:08;21.50;99.90
42019;DHT22;27703;51.980;5.848;2023-05-08T13:38:34;21.70;99.90
42019;DHT22;27703;51.980;5.848;2023-05-08T13:40:59;22.00;99.90
42019;DHT22;27703;51.980;5.848;2023-05-08T13:43:25;22.20;99.90
42019;DHT22;27703;51.980;5.848;2023-05-08T13:45:51;22.30;99.90
42019;DHT22;27703;51.980;5.848;2023-05-08T13:48:19;22.40;99.90
42019;DHT22;27703;51.980;5.848;2023-05-08T13:50:45;22.40;99.90
42019;DHT22;27703;51.980;5.848;2023-05-08T13:53:10;22.50;99.90
42019;DHT22;27703;51.980;5.848;2023-05-08T13:55:36;22.50;99.90
42019;DHT22;27703;51.980;5.848;2023-05-08T13:58:01;22.50;99.90
42019;DHT22;27703;51.980;5.848;2023-05-08T14:00:27;22.50;99.90
42019;DHT22;27703;51.980;5.848;2023-05-08T14:02:53;22.50;99.90
42019;DHT22;27703;51.980;5.848;2023-05-08T14:05:18;22.50;99.90
42019;DHT22;27703;51.980;5.848;2023-05-08T14:07:44;22.50;99.90
42019;DHT22;27703;51.980;5.848;2023-05-08T14:10:10;22.40;99.90
42019;DHT22;27703;51.980;5.848;2023-05-08T14:12:35;22.40;99.90
42019;DHT22;27703;51.980;5.848;2023-05-08T14:15:02;22.30;99.90
42019;DHT22;27703;51.980;5.848;2023-05-08T14:17:28;22.20;99.90
42019;DHT22;27703;51.980;5.848;2023-05-08T14:19:54;22.20;99.90
42019;DHT22;27703;51.980;5.848;2023-05-08T14:22:19;22.30;99.90
42019;DHT22;27703;51.980;5.848;2023-05-08T14:24:45;22.30;99.90
42019;DHT22;27703;51.980;5.848;2023-05-08T14:27:11;22.40;99.90
42019;DHT22;27703;51.980;5.848;2023-05-08T14:29:36;22.50;99.90
42019;DHT22;27703;51.980;5.848;2023-05-08T14:32:02;22.50;99.90
42019;DHT22;27703;51.980;5.848;2023-05-08T14:34:27;22.60;99.90
42019;DHT22;27703;51.980;5.848;2023-05-08T14:36:53;22.70;99.90
42019;DHT22;27703;51.980;5.848;2023-05-08T14:39:19;22.80;99.90
42019;DHT22;27703;51.980;5.848;2023-05-08T14:41:44;23.00;99.90
42019;DHT22;27703;51.980;5.848;2023-05-08T14:44:10;23.20;99.90
42019;DHT22;27703;51.980;5.848;2023-05-08T14:46:36;23.30;99.90
42019;DHT22;27703;51.980;5.848;2023-05-08T14:49:01;23.30;99.90
42019;DHT22;27703;51.980;5.848;2023-05-08T14:51:27;23.30;99.90
42019;DHT22;27703;51.980;5.848;2023-05-08T14:53:52;23.30;99.90
42019;DHT22;27703;51.980;5.848;2023-05-08T14:56:18;23.10;99.90
42019;DHT22;27703;51.980;5.848;2023-05-08T14:58:48;23.00;99.90
42019;DHT22;27703;51.980;5.848;2023-05-08T15:01:14;23.10;99.90
42019;DHT22;27703;51.980;5.848;2023-05-08T15:03:39;23.10;99.90
42019;DHT22;27703;51.980;5.848;2023-05-08T15:06:05;23.00;99.90
42019;DHT22;27703;51.980;5.848;2023-05-08T15:08:31;22.90;99.90
42019;DHT22;27703;51.980;5.848;2023-05-08T15:10:58;22.90;99.90
42019;DHT22;27703;51.980;5.848;2023-05-08T15:13:23;22.80;99.90
42019;DHT22;27703;51.980;5.848;2023-05-08T15:15:49;22.70;99.90
42019;DHT22;27703;51.980;5.848;2023-05-08T15:18:15;22.70;99.90
42019;DHT22;27703;51.980;5.848;2023-05-08T15:20:40;22.60;99.90
42019;DHT22;27703;51.980;5.848;2023-05-08T15:23:06;22.50;99.90
42019;DHT22;27703;51.980;5.848;2023-05-08T15:25:32;22.40;99.90
42019;DHT22;27703;51.980;5.848;2023-05-08T15:27:57;22.30;99.90
42019;DHT22;27703;51.980;5.848;2023-05-08T15:30:24;22.20;99.90
42019;DHT22;27703;51.980;5.848;2023-05-08T15:32:49;22.10;99.90
42019;DHT22;27703;51.980;5.848;2023-05-08T15:35:15;22.00;99.90
42019;DHT22;27703;51.980;5.848;2023-05-08T15:37:41;21.90;99.90
42019;DHT22;27703;51.980;5.848;2023-05-08T15:40:07;21.80;99.90
42019;DHT22;27703;51.980;5.848;2023-05-08T15:42:33;21.80;99.90
42019;DHT22;27703;51.980;5.848;2023-05-08T15:44:59;21.80;99.90
42019;DHT22;27703;51.980;5.848;2023-05-08T15:47:26;21.80;99.90
42019;DHT22;27703;51.980;5.848;2023-05-08T15:49:52;21.80;99.90
42019;DHT22;27703;51.980;5.848;2023-05-08T15:52:17;21.80;99.90
42019;DHT22;27703;51.980;5.848;2023-05-08T15:54:47;21.80;99.90
42019;DHT22;27703;51.980;5.848;2023-05-08T15:57:13;21.80;99.90
42019;DHT22;27703;51.980;5.848;2023-05-08T15:59:39;21.90;99.90
42019;DHT22;27703;51.980;5.848;2023-05-08T16:02:05;21.80;99.90
42019;DHT22;27703;51.980;5.848;2023-05-08T16:04:30;21.80;99.90
42019;DHT22;27703;51.980;5.848;2023-05-08T16:06:57;21.90;99.90
42019;DHT22;27703;51.980;5.848;2023-05-08T16:09:23;21.90;99.90
42019;DHT22;27703;51.980;5.848;2023-05-08T16:11:49;21.90;99.90
42019;DHT22;27703;51.980;5.848;2023-05-08T16:14:14;21.90;99.90